Flight Track Log - Related Links

Times and Time Zones

All times are in EDT time to prevent confusion due to time zone crossing. See the DAL1117 flight status page for this flight to view local times or setup timezone preferences in your user account.

Time Position Orientation Groundspeed Altitude Reporting Facility
EDT Latitude Longitude Course Direction KTS MPH feet Rate Location/Type
Mon 09:41:38 PM 42.2017 -83.3583 233° Southwest 148 170 1,600  Level Cleveland Center
Mon 09:43:03 PM 42.1622 -83.4292 233° Southwest 213 245 3,700 1,974 Climbing Cleveland Center
Mon 09:44:10 PM 42.1311 -83.5064 242° Southwest 230 265 6,600 2,063 Climbing Cleveland Center
Mon 09:44:39 PM 42.1389 -83.5347 290° West 265 305 7,000 1,875 Climbing Cleveland Center
Mon 09:44:58 PM 42.1567 -83.5719 303° West 277 319 8,100 2,800 Climbing Cleveland Center
Mon 09:45:39 PM 42.1781 -83.6261 298° West 271 312 9,800 2,614 Climbing Cleveland Center
Mon 09:46:39 PM 42.2156 -83.7092 301° West 260 299 12,500 1,600 Climbing Cleveland Center
Mon 09:47:39 PM 42.2586 -83.8069 301° West 277 319 13,000 250 Climbing Cleveland Center
Mon 09:48:39 PM 42.3056 -83.9158 300° West 310 357 13,000 900 Level Cleveland Center
Mon 09:49:39 PM 42.3525 -84.0253 300° West 329 379 14,800 2,250 Climbing Cleveland Center
Mon 09:50:39 PM 42.3972 -84.1261 301° West 334 384 17,500 2,020 Climbing Cleveland Center
Mon 09:52:55 PM 42.4919 -84.3781 297° West 335 386 21,400 1,667 Climbing Chicago Center
Mon 09:53:57 PM 42.4903 -84.5047 269° West 336 387 23,000 1,122 Climbing Chicago Center
Mon 09:54:58 PM 42.4894 -84.6339 270° West 343 395 23,700 927 Climbing Chicago Center
Mon 09:56:00 PM 42.4875 -84.7742 269° West 366 421 24,900 1,258 Climbing Chicago Center
Mon 09:57:02 PM 42.4614 -84.9083 255° West 369 425 26,300 1,317 Climbing Chicago Center
Mon 09:58:03 PM 42.4153 -85.0664 248° West 374 430 27,600 1,073 Climbing Chicago Center
Mon 09:59:05 PM 42.3906 -85.2069 257° West 390 449 28,500 1,073 Climbing Chicago Center
Mon 10:00:06 PM 42.3847 -85.3511 267° West 388 447 29,800 1,171 Climbing Chicago Center
Mon 10:01:08 PM 42.3703 -85.4903 262° West 378 435 30,900 1,024 Climbing Chicago Center
Mon 10:02:09 PM 42.3544 -85.6283 261° West 373 429 31,900 537 Climbing Chicago Center
Mon 10:03:11 PM 42.3383 -85.7706 261° West 379 436 32,000 49 Climbing Chicago Center
Mon 10:04:12 PM 42.3217 -85.9153 261° West 390 449 32,000  Level Chicago Center
Mon 10:05:14 PM 42.3044 -86.0617 261° West 393 452 32,000  Level Chicago Center
Mon 10:06:15 PM 42.2869 -86.2183 261° West 393 452 32,000  Level Chicago Center
Mon 10:07:16 PM 42.2697 -86.3628 261° West 392 451 32,000  Level Chicago Center
Mon 10:08:18 PM 42.2517 -86.5058 260° West 390 449 32,000  Level Chicago Center
Mon 10:09:20 PM 42.2350 -86.6486 261° West 387 445 32,000  Level Chicago Center
Mon 10:10:20 PM 42.2167 -86.8081 261° West 388 447 32,000 49 Level Chicago Center
Mon 10:11:22 PM 42.1986 -86.9542 261° West 395 455 32,100 537 Climbing Chicago Center
Mon 10:12:23 PM 42.1800 -87.0944 260° West 383 441 33,100 836 Climbing Chicago Center
Mon 10:13:24 PM 42.1619 -87.2356 260° West 385 443 33,800 439 Climbing Chicago Center
Mon 10:14:26 PM 42.1403 -87.4042 260° West 384 442 34,000 98 Climbing Chicago Center
Mon 10:15:27 PM 42.1236 -87.5436 261° West 382 440 34,000  Level Chicago Center
Mon 10:16:28 PM 42.1050 -87.6844 260° West 384 442 34,000  Level Chicago Center
Mon 10:17:29 PM 42.0867 -87.8250 260° West 385 443 34,000  Level Chicago Center
Mon 10:18:30 PM 42.0681 -87.9650 260° West 384 442 34,000  Level Chicago Center
Mon 10:19:32 PM 42.0483 -88.1044 259° West 383 441 34,000  Level Chicago Center
Mon 10:20:33 PM 42.0300 -88.2400 260° West 376 433 34,000  Level Chicago Center
Mon 10:21:34 PM 42.0081 -88.4072 260° West 381 438 34,000  Level Chicago Center
Mon 10:22:35 PM 41.9881 -88.5461 259° West 383 441 34,000  Level Chicago Center
Mon 10:23:36 PM 41.9694 -88.6864 260° West 385 443 34,000  Level Chicago Center
Mon 10:24:38 PM 41.9489 -88.8228 259° West 379 436 34,000  Level Chicago Center
Mon 10:25:39 PM 41.9297 -88.9603 259° West 378 435 34,000  Level Chicago Center
Mon 10:26:40 PM 41.9108 -89.0981 260° West 377 434 34,000  Level Chicago Center
Mon 10:27:41 PM 41.8906 -89.2356 259° West 380 437 34,000  Level Chicago Center
Mon 10:28:42 PM 41.8672 -89.3986 259° West 375 432 34,000  Level Chicago Center
Mon 10:29:43 PM 41.8472 -89.5358 259° West 376 433 34,000  Level Chicago Center
Mon 10:30:45 PM 41.8256 -89.6717 258° West 376 433 34,000  Level Chicago Center
Mon 10:31:46 PM 41.8047 -89.8089 259° West 378 435 34,000  Level Chicago Center
Mon 10:32:47 PM 41.7864 -89.9469 260° West 380 437 34,000  Level Chicago Center
Mon 10:33:48 PM 41.7647 -90.0853 258° West 382 440 34,000  Level Chicago Center
Mon 10:34:49 PM 41.7436 -90.2222 258° West 379 436 34,000  Level Chicago Center
Mon 10:35:50 PM 41.7222 -90.3603 258° West 380 437 34,000  Level Chicago Center
Mon 10:36:51 PM 41.7011 -90.4964 258° West 377 434 34,000  Level Chicago Center
Mon 10:37:52 PM 41.6786 -90.6364 258° West 374 430 34,000  Level Chicago Center
Mon 10:38:54 PM 41.6575 -90.7728 258° West 376 433 34,000  Level Chicago Center
Mon 10:39:55 PM 41.6353 -90.9064 257° West 372 428 34,000  Level Chicago Center
Mon 10:40:56 PM 41.6100 -91.0667 258° West 370 426 34,000  Level Chicago Center
Mon 10:41:57 PM 41.5878 -91.2019 258° West 372 428 34,000  Level Chicago Center
Mon 10:42:58 PM 41.5653 -91.3361 257° West 374 430 34,000  Level Chicago Center
Mon 10:43:59 PM 41.5436 -91.4689 258° West 370 426 34,000  Level Chicago Center
Mon 10:45:00 PM 41.5219 -91.6025 258° West 371 427 34,000  Level Chicago Center
Mon 10:46:01 PM 41.4883 -91.7319 251° West 372 428 34,000  Level Chicago Center
Mon 10:47:02 PM 41.4539 -91.8608 250° West 371 427 34,000  Level Chicago Center
Mon 10:48:03 PM 41.4206 -91.9897 251° West 371 427 34,000  Level Chicago Center
Mon 10:49:04 PM 41.3861 -92.1172 250° West 370 426 34,000  Level Chicago Center
Mon 10:50:05 PM 41.3517 -92.2428 250° West 367 422 34,000  Level Chicago Center
Mon 10:51:06 PM 41.3125 -92.3867 250° West 366 421 34,000  Level Chicago Center
Mon 10:52:07 PM 41.2781 -92.5139 250° West 367 422 34,000  Level Chicago Center
Mon 10:53:08 PM 41.2447 -92.6419 251° West 367 422 34,000  Level Chicago Center
Mon 10:54:09 PM 41.2089 -92.7681 249° West 368 423 34,000  Level Chicago Center
Mon 10:55:10 PM 41.1753 -92.8942 251° West 366 421 34,000  Level Chicago Center
Mon 10:56:08 PM 41.1400 -93.0211 250° West 367 422 34,000  Level Minneapolis Center
Mon 10:57:09 PM 41.1053 -93.1469 250° West 367 422 34,000  Level Minneapolis Center
Mon 10:58:11 PM 41.0639 -93.2936 250° West 361 415 34,000  Level Minneapolis Center
Mon 10:59:12 PM 41.0283 -93.4197 250° West 365 420 34,000  Level Minneapolis Center
Mon 11:00:13 PM 40.9914 -93.5481 249° West 370 426 34,000  Level Minneapolis Center
Mon 11:01:14 PM 40.9558 -93.6728 249° West 371 427 34,000  Level Minneapolis Center
Mon 11:02:15 PM 40.9200 -93.7961 249° West 367 422 34,000  Level Minneapolis Center
Mon 11:03:16 PM 40.8853 -93.9208 250° West 366 421 34,000  Level Minneapolis Center
Mon 11:04:17 PM 40.8472 -94.0458 248° West 369 425 34,000  Level Minneapolis Center
Mon 11:05:18 PM 40.8136 -94.1689 250° West 366 421 34,000  Level Minneapolis Center
Mon 11:06:20 PM 40.7700 -94.3194 249° West 367 422 34,000  Level Minneapolis Center
Mon 11:07:21 PM 40.7317 -94.4442 248° West 370 426 34,000  Level Minneapolis Center
Mon 11:08:22 PM 40.6922 -94.5786 249° West 369 425 34,000  Level Minneapolis Center
Mon 11:09:23 PM 40.6567 -94.7042 250° West 367 422 34,000  Level Minneapolis Center
Mon 11:10:24 PM 40.6183 -94.8294 248° West 367 422 34,000  Level Minneapolis Center
Mon 11:11:25 PM 40.5811 -94.9550 249° West 368 423 34,000  Level Minneapolis Center
Mon 11:12:27 PM 40.5444 -95.0817 249° West 368 423 34,000  Level Minneapolis Center
Mon 11:13:28 PM 40.5064 -95.2072 248° West 368 423 34,000  Level Minneapolis Center
Mon 11:14:29 PM 40.4689 -95.3331 249° West 368 423 34,000  Level Minneapolis Center
Mon 11:15:30 PM 40.4311 -95.4578 248° West 368 423 34,000  Level Minneapolis Center
Mon 11:16:31 PM 40.3925 -95.5828 248° West 368 423 34,000  Level Minneapolis Center
Mon 11:17:44 PM 40.3550 -95.7086 249° West 368 423 34,000  Level Minneapolis Center
Mon 11:18:46 PM 40.3089 -95.8578 248° West 368 423 34,000  Level Minneapolis Center
Mon 11:19:47 PM 40.2706 -95.9797 248° West 364 419 34,000  Level Minneapolis Center
Mon 11:20:48 PM 40.2325 -96.1011 248° West 362 417 34,000  Level Minneapolis Center
Mon 11:21:49 PM 40.1872 -96.2494 248° West 362 417 34,000  Level Minneapolis Center
Mon 11:22:50 PM 40.1619 -96.3808 256° West 365 420 34,000  Level Minneapolis Center
Mon 11:23:51 PM 40.1347 -96.5106 255° West 368 423 34,000  Level Minneapolis Center
Mon 11:24:52 PM 40.1067 -96.6386 254° West 368 423 34,000  Level Minneapolis Center
Mon 11:25:54 PM 40.0781 -96.7664 254° West 367 422 34,000  Level Minneapolis Center
Mon 11:26:55 PM 40.0500 -96.8956 254° West 368 423 34,000  Level Minneapolis Center
Mon 11:27:56 PM 40.0225 -97.0250 255° West 369 425 34,000  Level Minneapolis Center
Mon 11:28:57 PM 39.9942 -97.1531 254° West 369 425 34,000  Level Minneapolis Center
Mon 11:29:58 PM 39.9656 -97.2800 254° West 367 422 34,000  Level Minneapolis Center
Mon 11:30:59 PM 39.9356 -97.4061 253° West 366 421 34,000  Level Minneapolis Center
Mon 11:32:00 PM 39.9069 -97.5350 254° West 367 422 34,000  Level Minneapolis Center
Mon 11:33:01 PM 39.8778 -97.6628 253° West 367 422 34,000  Level Minneapolis Center
Mon 11:34:02 PM 39.8486 -97.7914 254° West 368 423 34,000  Level Minneapolis Center
Mon 11:35:03 PM 39.8194 -97.9178 253° West 367 422 34,000  Level Minneapolis Center
Mon 11:36:04 PM 39.7839 -98.0717 253° West 369 425 34,000  Level Minneapolis Center
Mon 11:37:05 PM 39.7544 -98.1986 253° West 367 422 34,000  Level Minneapolis Center
Mon 11:38:06 PM 39.7242 -98.3250 253° West 367 422 34,000  Level Minneapolis Center
Mon 11:39:07 PM 39.6942 -98.4522 253° West 367 422 34,000  Level Minneapolis Center
Mon 11:40:08 PM 39.6639 -98.5800 253° West 368 423 34,000  Level Minneapolis Center
Mon 11:41:09 PM 39.6347 -98.7053 253° West 365 420 34,000  Level Minneapolis Center
Mon 11:42:10 PM 39.6042 -98.8322 253° West 367 422 34,000  Level Minneapolis Center
Mon 11:43:11 PM 39.5733 -98.9614 253° West 372 428 34,000  Level Minneapolis Center
Mon 11:44:12 PM 39.5411 -99.0897 252° West 372 428 34,000  Level Minneapolis Center
Mon 11:45:13 PM 39.5097 -99.2200 253° West 376 433 34,000  Level Minneapolis Center
Mon 11:46:14 PM 39.4781 -99.3492 252° West 377 434 34,000  Level Minneapolis Center
Mon 11:47:15 PM 39.4467 -99.4789 253° West 378 435 34,000  Level Minneapolis Center
Mon 11:48:15 PM 39.4139 -99.6081 252° West 377 434 34,000  Level Minneapolis Center
Mon 11:48:30 PM 39.4033 -99.6522 253° West 377 434 34,000  Level Denver Center
Mon 11:49:32 PM 39.3728 -99.7772 252° West 381 438 34,000  Level Denver Center
Mon 11:50:33 PM 39.3358 -99.9233 252° West 382 440 34,000  Level Denver Center
Mon 11:51:34 PM 39.3042 -100.0483 252° West 383 441 34,000  Level Denver Center
Mon 11:52:35 PM 39.2711 -100.1764 252° West 388 447 34,000  Level Denver Center
Mon 11:53:37 PM 39.2378 -100.3258 254° West 388 447 34,000  Level Denver Center
Mon 11:54:38 PM 39.2111 -100.4544 255° West 388 447 34,000  Level Denver Center
Mon 11:55:39 PM 39.1783 -100.6053 254° West 390 449 34,000  Level Denver Center
Mon 11:56:40 PM 39.1517 -100.7342 255° West 389 448 34,000  Level Denver Center
Mon 11:57:41 PM 39.1242 -100.8631 255° West 390 449 34,000  Level Denver Center
Mon 11:58:43 PM 39.0917 -101.0117 254° West 386 444 34,000  Level Denver Center
Mon 11:59:44 PM 39.0694 -101.1181 255° West 384 442 34,000  Level Denver Center
Tue 12:00:45 AM 39.0322 -101.2833 254° West 385 443 34,000  Level Denver Center
Tue 12:01:46 AM 39.0053 -101.4086 255° West 382 440 34,000  Level Denver Center
Tue 12:02:47 AM 38.9769 -101.5328 254° West 380 437 34,000  Level Denver Center
Tue 12:03:48 AM 38.9453 -101.6772 254° West 379 436 34,000  Level Denver Center
Tue 12:04:50 AM 38.9183 -101.7997 254° West 375 432 34,000  Level Denver Center
Tue 12:05:51 AM 38.8903 -101.9222 254° West 375 432 34,000  Level Denver Center
Tue 12:06:52 AM 38.8592 -102.0656 254° West 376 433 34,000  Level Denver Center
Tue 12:07:53 AM 38.8303 -102.1875 253° West 375 432 34,000  Level Denver Center
Tue 12:08:54 AM 38.7972 -102.3306 254° West 375 432 34,000  Level Denver Center
Tue 12:09:55 AM 38.7692 -102.4533 254° West 376 433 34,000  Level Denver Center
Tue 12:10:56 AM 38.7422 -102.5753 254° West 373 429 34,000  Level Denver Center
Tue 12:11:57 AM 38.7083 -102.7178 253° West 374 430 34,000  Level Denver Center
Tue 12:12:58 AM 38.6772 -102.8517 253° West 379 436 34,000  Level Denver Center
Tue 12:13:59 AM 38.6478 -102.9803 254° West 375 432 34,000  Level Denver Center
Tue 12:15:00 AM 38.6161 -103.1092 253° West 376 433 34,000  Level Denver Center
Tue 12:16:14 AM 38.5850 -103.2403 253° West 381 438 34,000  Level Denver Center
Tue 12:17:15 AM 38.5503 -103.3917 254° West 374 430 34,000  Level Denver Center
Tue 12:18:16 AM 38.5189 -103.5164 252° West 382 440 34,000  Level Denver Center
Tue 12:19:17 AM 38.4842 -103.6606 253° West 382 440 34,000  Level Denver Center
Tue 12:20:18 AM 38.4539 -103.7831 253° West 381 438 34,000  Level Denver Center
Tue 12:21:19 AM 38.4242 -103.9058 253° West 380 437 34,000  Level Denver Center
Tue 12:22:20 AM 38.3886 -104.0481 252° West 378 435 34,000  Level Denver Center
Tue 12:23:21 AM 38.3594 -104.1719 253° West 379 436 34,000  Level Denver Center
Tue 12:24:22 AM 38.3317 -104.2800 252° West 381 438 34,000  Level Denver Center
Tue 12:25:23 AM 38.2944 -104.4364 253° West 378 435 34,000  Level Denver Center
Tue 12:26:24 AM 38.2817 -104.5667 263° West 389 448 34,000  Level Denver Center
Tue 12:27:25 AM 38.2689 -104.7144 264° West 381 438 34,000  Level Denver Center
Tue 12:28:26 AM 38.2581 -104.8378 264° West 371 427 34,000  Level Denver Center
Tue 12:29:27 AM 38.2458 -104.9611 263° West 368 423 34,000  Level Denver Center
Tue 12:30:28 AM 38.2328 -105.1042 263° West 366 421 34,000  Level Denver Center
Tue 12:31:29 AM 38.2211 -105.2264 263° West 364 419 34,000  Level Denver Center
Tue 12:32:30 AM 38.2083 -105.3694 264° West 365 420 34,000  Level Denver Center
Tue 12:33:31 AM 38.1956 -105.4917 262° West 366 421 34,000  Level Denver Center
Tue 12:34:32 AM 38.2103 -105.6175 279° West 383 441 34,000  Level Denver Center
Tue 12:35:33 AM 38.2392 -105.7631 284° West 380 437 34,000  Level Denver Center
Tue 12:36:46 AM 38.2622 -105.8875 283° West 379 436 34,000  Level Denver Center
Tue 12:37:47 AM 38.2900 -106.0569 282° West 383 441 34,000  Level Denver Center
Tue 12:38:48 AM 38.3056 -106.1928 278° West 382 440 34,000  Level Denver Center
Tue 12:39:49 AM 38.2836 -106.3233 258° West 377 434 34,000  Level Denver Center
Tue 12:40:50 AM 38.2619 -106.4528 258° West 374 430 34,000  Level Denver Center
Tue 12:41:51 AM 38.2417 -106.5717 258° West 372 428 34,000  Level Denver Center
Tue 12:42:52 AM 38.2167 -106.7164 258° West 373 429 34,000  Level Denver Center
Tue 12:43:52 AM 38.1958 -106.8394 258° West 373 429 34,000  Level Denver Center
Tue 12:44:53 AM 38.1725 -106.9686 257° West 372 428 34,000  Level Denver Center
Tue 12:45:54 AM 38.1492 -107.0972 257° West 371 427 34,000  Level Denver Center
Tue 12:46:55 AM 38.1261 -107.2292 258° West 376 433 34,000  Level Denver Center
Tue 12:47:56 AM 38.1033 -107.3514 257° West 375 432 34,000  Level Denver Center
Tue 12:48:57 AM 38.0781 -107.4947 257° West 373 429 34,000  Level Denver Center
Tue 12:49:58 AM 38.0558 -107.6153 257° West 369 425 34,000  Level Denver Center
Tue 12:50:59 AM 38.0342 -107.7372 257° West 370 426 34,000  Level Denver Center
Tue 12:52:00 AM 38.0094 -107.8775 257° West 366 421 34,000  Level Denver Center
Tue 12:53:01 AM 37.9869 -107.9964 257° West 365 420 34,000  Level Denver Center
Tue 12:54:01 AM 37.9642 -108.1136 256° West 363 418 34,000  Level Denver Center
Tue 12:55:02 AM 37.9372 -108.2561 257° West 366 421 34,000  Level Denver Center
Tue 12:56:15 AM 37.9150 -108.3769 257° West 369 425 34,000  Level Denver Center
Tue 12:57:16 AM 37.8856 -108.5317 256° West 360 414 34,000  Level Denver Center
Tue 12:58:17 AM 37.8622 -108.6556 257° West 369 425 34,000  Level Denver Center
Tue 12:59:18 AM 37.8386 -108.7769 256° West 373 429 34,000  Level Denver Center
Tue 01:00:19 AM 37.8122 -108.9142 256° West 365 420 34,000  Level Denver Center
Tue 01:01:19 AM 37.7839 -109.0325 253° West 365 420 34,000  Level Denver Center
Tue 01:02:20 AM 37.7494 -109.1717 253° West 372 428 34,000  Level Denver Center
Tue 01:03:21 AM 37.7206 -109.2881 253° West 365 420 34,000  Level Denver Center
Tue 01:04:22 AM 37.6906 -109.4053 252° West 367 422 34,000  Level Denver Center
Tue 01:05:22 AM 37.6564 -109.5425 253° West 369 425 34,000  Level Denver Center
Tue 01:06:23 AM 37.6267 -109.6603 252° West 369 425 34,000  Level Denver Center
Tue 01:07:24 AM 37.5975 -109.7794 253° West 370 426 34,000  Level Denver Center
Tue 01:08:25 AM 37.5622 -109.9164 252° West 369 425 34,000  Level Denver Center
Tue 01:09:26 AM 37.5325 -110.0333 252° West 368 423 34,000  Level Denver Center
Tue 01:10:26 AM 37.5022 -110.1508 252° West 368 423 34,000  Level Denver Center
Tue 01:11:27 AM 37.4700 -110.2744 252° West 366 421 34,000  Level Denver Center
Tue 01:12:28 AM 37.4383 -110.3958 252° West 367 422 34,000  Level Denver Center
Tue 01:13:29 AM 37.4061 -110.5181 252° West 369 425 34,000  Level Denver Center
Tue 01:14:29 AM 37.3731 -110.6414 251° West 371 427 34,000  Level Denver Center
Tue 01:15:30 AM 37.3417 -110.7606 252° West 363 418 34,000  Level Denver Center
Tue 01:16:31 AM 37.3103 -110.8822 252° West 365 420 34,000  Level Denver Center
Tue 01:17:32 AM 37.2775 -111.0064 252° West 371 427 34,000  Level Denver Center
Tue 01:18:32 AM 37.2442 -111.1300 251° West 373 429 34,000  Level Denver Center
Tue 01:19:33 AM 37.2122 -111.2500 252° West 365 420 34,000  Level Denver Center
Tue 01:20:34 AM 37.1728 -111.3981 252° West 373 429 34,000  Level Denver Center
Tue 01:21:35 AM 37.1389 -111.5219 251° West 374 430 34,000  Level Denver Center
Tue 01:22:36 AM 37.1061 -111.6433 251° West 371 427 34,000  Level Denver Center
Tue 01:23:36 AM 37.0728 -111.7642 251° West 368 423 34,000 -248 Level Denver Center
Tue 01:24:37 AM 37.0400 -111.8844 251° West 365 420 33,500 -694 Descending Denver Center
Tue 01:25:37 AM 37.0075 -111.9989 250° West 355 409 32,600 -942 Descending Denver Center
Tue 01:26:38 AM 36.9764 -112.1089 251° West 343 395 31,600 -984 Descending Denver Center
Tue 01:27:39 AM 36.9469 -112.2125 250° West 327 376 30,600 -984 Descending Denver Center
Tue 01:28:40 AM 36.9331 -112.3161 261° West 317 365 29,600 -905 Descending Denver Center
Tue 01:29:45 AM 36.9433 -112.4244 277° West 317 365 28,700 -1,571 Descending Los Angeles Center
Tue 01:30:46 AM 36.9581 -112.5511 278° West 309 356 26,300 -2,115 Descending Los Angeles Center
Tue 01:31:47 AM 36.9706 -112.6514 279° West 297 342 24,400 -1,122 Descending Los Angeles Center
Tue 01:32:49 AM 36.9836 -112.7528 279° West 295 339 24,000 -195 Descending Los Angeles Center
Tue 01:33:50 AM 36.9628 -112.8489 255° West 291 335 24,000  Level Los Angeles Center
Tue 01:34:51 AM 36.9344 -112.9444 250° West 292 336 24,000  Level Los Angeles Center
Tue 01:35:52 AM 36.9036 -113.0417 248° West 298 343 24,000  Level Los Angeles Center
Tue 01:36:53 AM 36.8736 -113.1397 249° West 301 346 24,000  Level Los Angeles Center
Tue 01:37:55 AM 36.8428 -113.2375 249° West 302 348 24,000  Level Los Angeles Center
Tue 01:38:56 AM 36.8131 -113.3353 249° West 302 348 24,000  Level Los Angeles Center
Tue 01:39:57 AM 36.7808 -113.4342 248° West 307 353 24,000  Level Los Angeles Center
Tue 01:40:58 AM 36.7503 -113.5322 249° West 306 352 24,000  Level Los Angeles Center
Tue 01:41:59 AM 36.7211 -113.6286 249° West 299 344 24,000  Level Los Angeles Center
Tue 01:43:00 AM 36.6844 -113.7425 248° West 296 341 24,000  Level Los Angeles Center
Tue 01:44:02 AM 36.6517 -113.8439 248° West 313 360 24,000  Level Los Angeles Center
Tue 01:45:03 AM 36.6167 -113.9564 249° West 343 395 24,000 -836 Level Los Angeles Center
Tue 01:46:04 AM 36.5811 -114.0672 248° West 345 397 22,300 -2,213 Descending Los Angeles Center
Tue 01:47:05 AM 36.5386 -114.1658 242° Southwest 327 376 19,500 -2,810 Descending Los Angeles Center
Tue 01:47:23 AM 36.5258 -114.1992 245° Southwest 331 381 18,600 -3,049 Descending Los Angeles Center
Tue 01:48:06 AM 36.4928 -114.2647 238° Southwest 317 365 16,400 -3,091 Descending Los Angeles Center
Tue 01:48:29 AM 36.4767 -114.3072 245° Southwest 313 360 15,200 -2,656 Descending Los Angeles Center
Tue 01:49:07 AM 36.4506 -114.3583 238° Southwest 312 359 13,700 -2,400 Descending Los Angeles Center
Tue 01:49:24 AM 36.4386 -114.3897 245° Southwest 315 362 13,000 -1,377 Descending Los Angeles Center
Tue 01:50:08 AM 36.4058 -114.4514 237° Southwest 314 361 12,300 -686 Descending Los Angeles Center
Tue 01:51:09 AM 36.3383 -114.5081 214° Southwest 288 331 11,800 -1,050 Descending Los Angeles Center
Tue 01:52:08 AM 36.2869 -114.5831 230° Southwest 271 312 10,200 -1,230 Descending Los Angeles Center
Tue 01:53:11 AM 36.2397 -114.6422 225° Southwest 260 299 9,300 -1,091 Descending Los Angeles Center
Tue 01:54:09 AM 36.1969 -114.7044 230° Southwest 219 252 8,000 -1,311 Descending Los Angeles Center
Tue 01:55:10 AM 36.1600 -114.7514 226° Southwest 188 216 6,700 -1,230 Descending Los Angeles Center
Tue 01:56:11 AM 36.1322 -114.7928 230° Southwest 159 183 5,500 -561 Descending Los Angeles Center
Tue 01:57:29 AM 36.0936 -114.8431 226° Southwest 154 177 5,400 -192 Descending Los Angeles Center
Tue 01:58:16 AM 36.0786 -114.8664 232° Southwest 157 181 5,100 -222 Descending Los Angeles Center
Tue 01:59:17 AM 36.0747 -114.9164 265° West 150 173 5,000 -148 Descending Los Angeles Center
Tue 01:59:37 AM 36.0756 -114.9475 272° West 170 196 4,900 -643 Descending Los Angeles Center
Tue 02:00:13 AM 36.0739 -114.9800 266° West 154 177 4,400 -804 Descending Los Angeles Center
Tue 02:01:14 AM 36.0736 -115.0281 270° West 143 165 3,600 -738 Descending Los Angeles Center
Tue 02:02:15 AM 36.0733 -115.0761 270° West 139 160 2,900 -714 Descending Los Angeles Center
Tue 02:03:20 AM 36.0733 -115.1250 270° West 139 160 2,100 -738 Descending Los Angeles Center
Tue 02:05:00 AM 36.0667 -115.1500 219° Southwest  Level FlightAware Approximate

Login

Don't have an account? Register now (free) for customized features, flight alerts, and more!